createdAt,value
2019-02-25T00:00:52.037Z,97.00
2019-02-25T00:03:24.220Z,97.00
2019-02-25T00:05:53.309Z,97.00
2019-02-25T00:08:22.743Z,97.00
2019-02-25T00:10:52.028Z,97.00
2019-02-25T00:13:21.091Z,97.00
2019-02-25T00:15:50.069Z,97.00
2019-02-25T00:18:19.249Z,97.00
2019-02-25T00:20:48.324Z,97.00
2019-02-25T00:23:17.408Z,97.00
2019-02-25T00:25:46.570Z,97.00
2019-02-25T00:28:15.715Z,97.00
2019-02-25T00:30:44.945Z,97.00
2019-02-25T00:33:14.023Z,97.00
2019-02-25T00:35:43.103Z,97.00
2019-02-25T00:38:12.235Z,97.00
2019-02-25T00:40:41.343Z,97.00
2019-02-25T00:43:10.575Z,97.00
2019-02-25T00:45:39.680Z,97.00
2019-02-25T00:48:08.749Z,97.00
2019-02-25T00:50:37.941Z,97.00
2019-02-25T00:53:06.988Z,97.00
2019-02-25T00:55:36.050Z,97.00
2019-02-25T00:58:05.198Z,97.00
2019-02-25T01:00:34.425Z,97.00
2019-02-25T01:03:03.622Z,97.00
2019-02-25T01:05:32.804Z,97.00
2019-02-25T01:08:01.991Z,97.00
2019-02-25T01:10:31.149Z,97.00
2019-02-25T01:13:00.289Z,97.00
2019-02-25T01:15:29.387Z,97.00
2019-02-25T01:17:59.969Z,97.00
2019-02-25T01:20:29.278Z,97.00
2019-02-25T01:22:58.450Z,97.00
2019-02-25T01:25:27.694Z,97.00
2019-02-25T01:27:56.653Z,97.00
2019-02-25T01:30:25.643Z,97.00
2019-02-25T01:32:54.711Z,97.00
2019-02-25T01:35:23.820Z,97.00
2019-02-25T01:37:52.946Z,97.00
2019-02-25T01:40:22.072Z,97.00
2019-02-25T01:42:51.183Z,97.00
2019-02-25T01:45:20.292Z,97.00
2019-02-25T01:47:49.361Z,97.00
2019-02-25T01:50:18.463Z,97.00
2019-02-25T01:52:47.535Z,97.00
2019-02-25T01:55:16.648Z,97.00
2019-02-25T01:57:46.011Z,97.00
2019-02-25T02:00:15.454Z,97.00
2019-02-25T02:02:44.508Z,97.00
2019-02-25T02:05:13.811Z,97.00
2019-02-25T02:07:42.877Z,97.00
2019-02-25T02:10:12.680Z,97.00
2019-02-25T02:12:41.792Z,97.00
2019-02-25T02:15:15.441Z,97.00
2019-02-25T02:17:44.510Z,97.00
2019-02-25T02:20:14.575Z,97.00
2019-02-25T02:22:43.866Z,97.00
2019-02-25T02:25:13.457Z,97.00
2019-02-25T02:27:42.540Z,97.00
2019-02-25T02:30:15.362Z,97.00
2019-02-25T02:32:44.535Z,97.00
2019-02-25T02:35:13.619Z,97.00
2019-02-25T02:37:42.609Z,97.00
2019-02-25T02:40:11.827Z,97.00
2019-02-25T02:42:42.407Z,97.00
2019-02-25T02:45:26.684Z,97.00
2019-02-25T02:48:08.081Z,97.00
2019-02-25T02:50:37.272Z,97.00
2019-02-25T02:53:06.357Z,97.00
2019-02-25T02:55:35.465Z,97.00
2019-02-25T02:58:05.571Z,97.00
2019-02-25T03:00:34.700Z,97.00
2019-02-25T03:03:03.771Z,97.00
2019-02-25T03:05:32.943Z,97.00
2019-02-25T03:08:02.205Z,97.00
2019-02-25T03:10:31.234Z,97.00
2019-02-25T03:13:00.432Z,97.00
2019-02-25T03:15:29.514Z,97.00
2019-02-25T03:17:58.625Z,97.00
2019-02-25T03:20:27.702Z,97.00
2019-02-25T03:22:56.798Z,97.00
2019-02-25T03:25:25.959Z,97.00
2019-02-25T03:27:55.000Z,97.00
2019-02-25T03:30:24.086Z,97.00
2019-02-25T03:32:53.603Z,97.00
2019-02-25T03:35:22.957Z,97.00
2019-02-25T03:37:52.018Z,97.00
2019-02-25T03:40:21.389Z,97.00
2019-02-25T03:42:50.484Z,97.00
2019-02-25T03:45:19.975Z,97.00
2019-02-25T03:47:48.999Z,97.00
2019-02-25T03:50:18.098Z,97.00
2019-02-25T03:52:47.194Z,97.00
2019-02-25T03:55:17.345Z,97.00
2019-02-25T03:57:46.912Z,97.00
2019-02-25T04:00:18.214Z,97.00
2019-02-25T04:02:47.279Z,97.00
2019-02-25T04:05:16.601Z,97.00
2019-02-25T04:07:45.691Z,97.00
2019-02-25T04:10:15.031Z,97.00
2019-02-25T04:12:44.145Z,97.00
2019-02-25T04:15:15.788Z,97.00
2019-02-25T04:17:44.872Z,97.00
2019-02-25T04:20:14.583Z,97.00
2019-02-25T04:22:43.522Z,97.00
2019-02-25T04:25:12.781Z,97.00
2019-02-25T04:27:41.908Z,97.00
2019-02-25T04:30:13.138Z,97.00
2019-02-25T04:32:42.514Z,97.00
2019-02-25T04:35:11.912Z,97.00
2019-02-25T04:37:41.398Z,97.00
2019-02-25T04:40:12.036Z,97.00
2019-02-25T04:42:41.286Z,97.00
2019-02-25T04:45:13.048Z,97.00
2019-02-25T04:47:42.203Z,97.00
2019-02-25T04:50:12.235Z,97.00
2019-02-25T04:52:41.411Z,97.00
2019-02-25T04:55:10.803Z,97.00
2019-02-25T04:57:40.352Z,97.00
2019-02-25T05:00:12.453Z,97.00
2019-02-25T05:02:41.626Z,97.00
2019-02-25T05:05:11.185Z,97.00
2019-02-25T05:07:40.612Z,97.00
2019-02-25T05:10:11.194Z,97.00
2019-02-25T05:12:42.704Z,97.00
2019-02-25T05:15:14.250Z,97.00
2019-02-25T05:17:43.415Z,97.00
2019-02-25T05:20:13.154Z,97.00
2019-02-25T05:22:42.499Z,97.00
2019-02-25T05:25:12.143Z,97.00
2019-02-25T05:27:41.200Z,97.00
2019-02-25T05:30:10.721Z,97.00
2019-02-25T05:32:40.262Z,97.00
2019-02-25T05:35:09.789Z,97.00
2019-02-25T05:37:39.058Z,97.00
2019-02-25T05:40:11.221Z,97.00
2019-02-25T05:42:40.529Z,97.00
2019-02-25T05:45:10.021Z,97.00
2019-02-25T05:47:39.129Z,97.00
2019-02-25T05:50:10.883Z,97.00
2019-02-25T05:52:40.367Z,97.00
2019-02-25T05:55:11.195Z,97.00
2019-02-25T05:57:40.629Z,97.00
2019-02-25T06:00:14.516Z,97.00
2019-02-25T06:02:43.899Z,97.00
2019-02-25T06:05:13.242Z,97.00
2019-02-25T06:07:42.385Z,97.00
2019-02-25T06:10:11.982Z,97.00
2019-02-25T06:12:41.167Z,97.00
2019-02-25T06:15:11.448Z,97.00
2019-02-25T06:17:40.988Z,97.00
2019-02-25T06:20:11.228Z,97.00
2019-02-25T06:22:40.436Z,97.00
2019-02-25T06:25:09.892Z,97.00
2019-02-25T06:27:39.172Z,97.00
2019-02-25T06:30:10.512Z,97.00
2019-02-25T06:32:40.143Z,97.00
2019-02-25T06:35:09.584Z,97.00
2019-02-25T06:37:38.910Z,97.00
2019-02-25T06:40:09.650Z,97.00
2019-02-25T06:42:39.091Z,97.00
2019-02-25T06:45:09.958Z,97.00
2019-02-25T06:47:39.225Z,97.00
2019-02-25T06:50:09.293Z,97.00
2019-02-25T06:52:38.601Z,97.00
2019-02-25T06:55:09.135Z,97.00
2019-02-25T06:57:38.332Z,97.00
2019-02-25T07:00:10.987Z,97.00
2019-02-25T07:02:40.327Z,97.00
2019-02-25T07:05:27.964Z,97.00
2019-02-25T07:08:16.365Z,97.00
2019-02-25T07:10:56.608Z,97.00
2019-02-25T07:13:50.885Z,97.00
2019-02-25T07:16:48.384Z,97.00
2019-02-25T07:19:29.215Z,97.00
2019-02-25T07:22:05.916Z,97.00
2019-02-25T07:24:58.171Z,97.00
2019-02-25T07:28:04.643Z,97.00
2019-02-25T07:30:55.667Z,97.00
2019-02-25T07:33:42.072Z,97.00
2019-02-25T07:36:32.715Z,97.00
2019-02-25T07:39:10.827Z,97.00
2019-02-25T07:41:54.335Z,97.00
2019-02-25T07:44:41.426Z,97.00
2019-02-25T07:47:14.795Z,97.00
2019-02-25T07:50:01.477Z,97.00
2019-02-25T07:52:44.310Z,97.00
2019-02-25T07:55:32.453Z,97.00
2019-02-25T07:58:14.420Z,97.00
2019-02-25T08:00:57.589Z,97.00
2019-02-25T08:03:44.289Z,97.00
2019-02-25T08:06:18.562Z,97.00
2019-02-25T08:08:58.413Z,97.00
2019-02-25T08:11:45.320Z,97.00
2019-02-25T08:14:45.751Z,97.00
2019-02-25T08:17:39.985Z,97.00
2019-02-25T08:20:27.001Z,97.00
2019-02-25T08:23:06.526Z,97.00
2019-02-25T08:25:57.454Z,97.00
2019-02-25T08:28:38.793Z,97.00
2019-02-25T08:31:18.747Z,97.00
2019-02-25T08:34:06.908Z,96.60
2019-02-25T08:37:23.662Z,96.40
2019-02-25T08:40:23.348Z,95.50
2019-02-25T08:42:58.865Z,94.00
2019-02-25T08:45:36.155Z,93.60
2019-02-25T08:48:39.669Z,92.40
2019-02-25T08:51:08.738Z,91.80
2019-02-25T08:53:39.943Z,91.30
2019-02-25T08:56:09.059Z,90.00
2019-02-25T08:58:38.171Z,90.70
2019-02-25T09:01:07.330Z,89.60
2019-02-25T09:03:36.499Z,89.40
2019-02-25T09:06:05.613Z,87.80
2019-02-25T09:08:34.702Z,86.90
2019-02-25T09:11:03.830Z,85.90
2019-02-25T09:13:33.004Z,85.30
2019-02-25T09:16:02.118Z,84.80
2019-02-25T09:18:31.274Z,83.90
2019-02-25T09:21:00.297Z,83.00
2019-02-25T09:23:29.374Z,82.70
2019-02-25T09:25:58.517Z,82.60
2019-02-25T09:28:27.632Z,81.00
2019-02-25T09:30:56.733Z,80.00
2019-02-25T09:33:25.744Z,79.50
2019-02-25T09:35:54.919Z,78.40
2019-02-25T09:38:24.037Z,78.30
2019-02-25T09:40:53.101Z,77.60
2019-02-25T09:43:22.241Z,76.90
2019-02-25T09:45:51.275Z,76.40
2019-02-25T09:48:20.386Z,76.00
2019-02-25T09:50:49.480Z,75.20
2019-02-25T09:53:18.575Z,74.20
2019-02-25T09:55:47.687Z,72.50
2019-02-25T09:58:16.889Z,72.40
2019-02-25T10:00:46.262Z,72.40
2019-02-25T10:03:15.501Z,72.50
2019-02-25T10:05:46.266Z,72.10
2019-02-25T10:08:15.595Z,72.00
2019-02-25T10:10:44.772Z,71.40
2019-02-25T10:13:15.551Z,70.70
2019-02-25T10:15:44.946Z,70.70
2019-02-25T10:18:14.210Z,70.70
2019-02-25T10:20:43.446Z,70.00
2019-02-25T10:23:12.743Z,69.60
2019-02-25T10:25:41.895Z,69.10
2019-02-25T10:28:10.883Z,69.00
2019-02-25T10:30:40.015Z,67.30
2019-02-25T10:33:09.123Z,66.60
2019-02-25T10:35:38.271Z,66.00
2019-02-25T10:38:07.409Z,65.80
2019-02-25T10:40:36.548Z,65.90
2019-02-25T10:43:05.660Z,65.70
2019-02-25T10:45:36.765Z,66.30
2019-02-25T10:48:05.564Z,65.10
2019-02-25T10:50:36.043Z,63.50
2019-02-25T10:53:05.891Z,61.30
2019-02-25T10:55:40.005Z,62.10
2019-02-25T10:58:09.821Z,62.90
2019-02-25T11:00:39.576Z,63.90
2019-02-25T11:03:10.710Z,63.80
2019-02-25T11:05:40.456Z,63.10
2019-02-25T11:08:13.717Z,63.10
2019-02-25T11:10:48.638Z,63.90
2019-02-25T11:13:18.163Z,63.80
2019-02-25T11:15:48.374Z,62.60
2019-02-25T11:18:19.813Z,63.20
2019-02-25T11:20:49.293Z,63.20
2019-02-25T11:23:19.415Z,63.40
2019-02-25T11:25:49.071Z,62.80
2019-02-25T11:28:25.135Z,63.10
2019-02-25T11:30:49.849Z,60.70
2019-02-25T11:33:22.475Z,61.30
2019-02-25T11:35:50.929Z,60.90
2019-02-25T11:38:20.116Z,60.80
2019-02-25T11:40:49.191Z,60.80
2019-02-25T11:43:18.920Z,61.90
2019-02-25T11:45:49.196Z,61.50
2019-02-25T11:48:18.288Z,62.10
2019-02-25T11:50:47.411Z,61.60
2019-02-25T11:53:16.420Z,62.10
2019-02-25T11:55:45.688Z,61.60
2019-02-25T11:58:14.759Z,56.70
2019-02-25T12:00:43.974Z,57.70
2019-02-25T12:03:13.140Z,59.00
2019-02-25T12:05:42.394Z,60.30
2019-02-25T12:08:11.423Z,61.30
2019-02-25T12:10:40.501Z,61.80
2019-02-25T12:13:09.530Z,61.90
2019-02-25T12:15:38.698Z,62.10
2019-02-25T12:18:07.844Z,62.10
2019-02-25T12:20:37.073Z,61.60
2019-02-25T12:23:07.222Z,60.80
2019-02-25T12:25:36.449Z,60.50
2019-02-25T12:28:08.268Z,60.10
2019-02-25T12:30:37.511Z,59.00
2019-02-25T12:33:06.555Z,57.50
2019-02-25T12:35:35.652Z,57.40
2019-02-25T12:38:04.826Z,57.00
2019-02-25T12:40:33.960Z,56.60
2019-02-25T12:43:03.286Z,56.50
2019-02-25T12:45:32.803Z,55.70
2019-02-25T12:48:02.152Z,55.20
2019-02-25T12:50:31.400Z,54.40
2019-02-25T12:53:00.500Z,53.10
2019-02-25T12:55:29.668Z,52.90
2019-02-25T12:57:58.683Z,52.80
2019-02-25T13:00:27.889Z,53.20
2019-02-25T13:02:56.988Z,53.30
2019-02-25T13:05:26.084Z,53.80
2019-02-25T13:07:55.145Z,53.60
2019-02-25T13:10:24.505Z,53.20
2019-02-25T13:12:53.584Z,53.30
2019-02-25T13:15:22.680Z,53.50
2019-02-25T13:17:51.781Z,53.30
2019-02-25T13:20:20.856Z,53.30
2019-02-25T13:22:50.100Z,53.10
2019-02-25T13:25:19.389Z,52.20
2019-02-25T13:27:48.625Z,51.60
2019-02-25T13:30:17.811Z,51.10
2019-02-25T13:32:46.984Z,51.10
2019-02-25T13:35:16.156Z,51.30
2019-02-25T13:37:45.726Z,51.00
2019-02-25T13:40:15.024Z,51.20
2019-02-25T13:42:44.353Z,50.80
2019-02-25T13:45:13.920Z,50.90
2019-02-25T13:47:43.026Z,50.30
2019-02-25T13:50:12.676Z,50.10
2019-02-25T13:52:47.980Z,49.90
2019-02-25T13:55:13.239Z,49.60
2019-02-25T13:57:42.492Z,49.20
2019-02-25T14:00:16.065Z,49.40
2019-02-25T14:02:45.449Z,49.00
2019-02-25T14:05:14.930Z,48.80
2019-02-25T14:07:44.257Z,48.60
2019-02-25T14:10:15.786Z,48.20
2019-02-25T14:12:44.893Z,48.50
2019-02-25T14:15:15.195Z,48.40
2019-02-25T14:17:44.756Z,48.40
2019-02-25T14:20:15.677Z,48.10
2019-02-25T14:22:44.728Z,48.20
2019-02-25T14:25:22.925Z,48.50
2019-02-25T14:27:52.191Z,48.70
2019-02-25T14:30:22.990Z,48.40
2019-02-25T14:32:53.491Z,48.50
2019-02-25T14:35:27.851Z,48.50
2019-02-25T14:37:59.075Z,48.10
2019-02-25T14:40:29.837Z,47.80
2019-02-25T14:42:59.837Z,47.70
2019-02-25T14:45:31.546Z,48.10
2019-02-25T14:48:02.502Z,48.60
2019-02-25T14:50:31.245Z,49.00
2019-02-25T14:53:01.274Z,48.40
2019-02-25T14:55:31.564Z,48.80
2019-02-25T14:58:04.463Z,48.90
2019-02-25T15:00:34.927Z,49.30
2019-02-25T15:03:03.499Z,49.80
2019-02-25T15:05:32.655Z,50.20
2019-02-25T15:08:02.107Z,50.50
2019-02-25T15:10:31.578Z,50.90
2019-02-25T15:13:03.952Z,51.40
2019-02-25T15:15:34.757Z,51.50
2019-02-25T15:18:04.113Z,51.50
2019-02-25T15:20:33.497Z,52.10
2019-02-25T15:23:02.837Z,52.50
2019-02-25T15:25:33.963Z,52.70
2019-02-25T15:28:02.873Z,53.10
2019-02-25T15:30:32.315Z,53.20
2019-02-25T15:33:01.579Z,53.50
2019-02-25T15:35:34.068Z,53.80
2019-02-25T15:38:01.592Z,54.30
2019-02-25T15:40:30.765Z,54.80
2019-02-25T15:43:02.307Z,55.50
2019-02-25T15:45:34.999Z,56.70
2019-02-25T15:48:04.649Z,57.80
2019-02-25T15:50:33.965Z,59.10
2019-02-25T15:53:04.984Z,60.10
2019-02-25T15:55:33.918Z,61.10
2019-02-25T15:58:03.164Z,62.10
2019-02-25T16:00:34.513Z,63.10
2019-02-25T16:03:06.038Z,63.60
2019-02-25T16:05:36.853Z,64.40
2019-02-25T16:08:06.442Z,65.00
2019-02-25T16:10:35.695Z,65.50
2019-02-25T16:13:09.426Z,65.90
2019-02-25T16:15:36.002Z,66.30
2019-02-25T16:18:05.240Z,66.90
2019-02-25T16:20:34.421Z,67.20
2019-02-25T16:23:05.917Z,67.70
2019-02-25T16:25:35.813Z,67.80
2019-02-25T16:28:05.957Z,68.20
2019-02-25T16:30:40.502Z,68.60
2019-02-25T16:33:11.675Z,68.90
2019-02-25T16:35:41.230Z,69.10
2019-02-25T16:38:11.401Z,69.70
2019-02-25T16:40:40.628Z,69.90
2019-02-25T16:43:12.766Z,70.40
2019-02-25T16:45:42.570Z,70.90
2019-02-25T16:48:12.256Z,72.00
2019-02-25T16:50:43.737Z,72.60
2019-02-25T16:53:14.856Z,73.80
2019-02-25T16:55:45.067Z,75.20
2019-02-25T16:58:14.264Z,74.70
2019-02-25T17:00:43.412Z,75.50
2019-02-25T17:03:13.849Z,77.80
2019-02-25T17:05:45.606Z,77.90
2019-02-25T17:08:17.419Z,78.40
2019-02-25T17:10:46.584Z,78.50
2019-02-25T17:13:17.079Z,79.30
2019-02-25T17:15:46.806Z,81.00
2019-02-25T17:18:16.173Z,81.10
2019-02-25T17:20:49.268Z,82.00
2019-02-25T17:23:16.237Z,82.80
2019-02-25T17:25:45.488Z,83.40
2019-02-25T17:28:17.478Z,84.10
2019-02-25T17:30:47.391Z,84.20
2019-02-25T17:33:19.380Z,84.90
2019-02-25T17:35:49.965Z,85.40
2019-02-25T17:38:22.044Z,86.10
2019-02-25T17:40:50.089Z,86.70
2019-02-25T17:43:20.224Z,87.30
2019-02-25T17:45:49.660Z,89.00
2019-02-25T17:48:21.016Z,89.30
2019-02-25T17:50:49.659Z,90.10
2019-02-25T17:53:18.904Z,90.50
2019-02-25T17:55:49.027Z,91.40
2019-02-25T17:58:19.823Z,92.10
2019-02-25T18:00:49.833Z,93.60
2019-02-25T18:03:19.526Z,94.20
2019-02-25T18:05:49.588Z,95.30
2019-02-25T18:08:19.972Z,95.80
2019-02-25T18:10:50.064Z,96.70
2019-02-25T18:13:21.960Z,97.00
2019-02-25T18:15:51.546Z,97.00
2019-02-25T18:18:22.179Z,97.00
2019-02-25T18:20:53.611Z,97.00
2019-02-25T18:23:23.512Z,97.00
2019-02-25T18:25:55.128Z,97.00
2019-02-25T18:28:23.605Z,97.00
2019-02-25T18:30:53.457Z,97.00
2019-02-25T18:33:24.716Z,97.00
2019-02-25T18:35:53.677Z,97.00
2019-02-25T18:38:23.266Z,97.00
2019-02-25T18:40:53.756Z,97.00
2019-02-25T18:43:24.250Z,97.00
2019-02-25T18:45:56.122Z,97.00
2019-02-25T18:48:25.789Z,97.00
2019-02-25T18:50:58.485Z,97.00
2019-02-25T18:53:27.423Z,97.00
2019-02-25T18:55:56.812Z,97.00
2019-02-25T18:58:26.292Z,97.00
2019-02-25T19:00:57.139Z,97.00
2019-02-25T19:03:26.988Z,97.00
2019-02-25T19:05:57.463Z,97.00
2019-02-25T19:08:28.946Z,97.00
2019-02-25T19:11:01.417Z,97.00
2019-02-25T19:13:32.060Z,97.00
2019-02-25T19:16:03.938Z,97.00
2019-02-25T19:18:34.433Z,97.00
2019-02-25T19:21:06.659Z,97.00
2019-02-25T19:23:37.694Z,97.00
2019-02-25T19:26:09.496Z,97.00
2019-02-25T19:28:38.074Z,97.00
2019-02-25T19:31:08.714Z,97.00
2019-02-25T19:33:40.528Z,97.00
2019-02-25T19:36:12.082Z,97.00
2019-02-25T19:38:43.692Z,97.00
2019-02-25T19:41:15.162Z,97.00
2019-02-25T19:43:43.217Z,97.00
2019-02-25T19:46:13.654Z,97.00
2019-02-25T19:48:44.767Z,97.00
2019-02-25T19:51:14.212Z,97.00
2019-02-25T19:53:45.268Z,97.00
2019-02-25T19:56:14.573Z,97.00
2019-02-25T19:58:43.822Z,97.00
2019-02-25T20:01:13.203Z,97.00
2019-02-25T20:03:45.162Z,97.00
2019-02-25T20:06:21.542Z,97.00
2019-02-25T20:08:51.584Z,97.00
2019-02-25T20:11:25.875Z,97.00
2019-02-25T20:13:56.080Z,97.00
2019-02-25T20:16:28.073Z,97.00
2019-02-25T20:18:58.029Z,97.00
2019-02-25T20:21:28.794Z,97.00
2019-02-25T20:24:00.020Z,97.00
2019-02-25T20:26:29.601Z,97.00
2019-02-25T20:28:58.771Z,97.00
2019-02-25T20:31:27.917Z,97.00
2019-02-25T20:33:57.786Z,97.00
2019-02-25T20:36:28.998Z,97.00
2019-02-25T20:38:59.279Z,97.00
2019-02-25T20:41:29.345Z,97.00
2019-02-25T20:44:00.643Z,97.00
2019-02-25T20:46:52.635Z,97.00
2019-02-25T20:49:22.669Z,97.00
2019-02-25T20:51:54.369Z,97.00
2019-02-25T20:54:23.527Z,97.00
2019-02-25T20:56:53.371Z,97.00
2019-02-25T20:59:25.639Z,97.00
2019-02-25T21:01:54.579Z,97.00
2019-02-25T21:04:23.865Z,97.00
2019-02-25T21:06:53.035Z,97.00
2019-02-25T21:09:22.816Z,97.00
2019-02-25T21:11:52.023Z,97.00
2019-02-25T21:14:21.322Z,97.00
2019-02-25T21:16:52.098Z,97.00
2019-02-25T21:19:21.324Z,97.00
2019-02-25T21:21:53.106Z,97.00
2019-02-25T21:24:21.434Z,97.00
2019-02-25T21:26:50.519Z,97.00
2019-02-25T21:29:23.164Z,97.00
2019-02-25T21:31:52.308Z,97.00
2019-02-25T21:34:24.220Z,97.00
2019-02-25T21:36:54.623Z,97.00
2019-02-25T21:39:23.636Z,97.00
2019-02-25T21:41:53.049Z,97.00
2019-02-25T21:44:24.213Z,97.00
2019-02-25T21:46:54.040Z,97.00
2019-02-25T21:49:26.871Z,97.00
2019-02-25T21:51:54.522Z,97.00
2019-02-25T21:54:23.492Z,97.00
2019-02-25T21:56:52.664Z,97.00
2019-02-25T21:59:21.844Z,97.00
2019-02-25T22:01:52.837Z,97.00
2019-02-25T22:04:22.594Z,97.00
2019-02-25T22:06:53.378Z,97.00
2019-02-25T22:09:36.457Z,97.00
2019-02-25T22:11:53.834Z,97.00
2019-02-25T22:14:25.116Z,97.00
2019-02-25T22:16:54.373Z,97.00
2019-02-25T22:19:24.624Z,97.00
2019-02-25T22:21:55.801Z,97.00
2019-02-25T22:24:27.166Z,97.00
2019-02-25T22:26:56.407Z,97.00
2019-02-25T22:29:26.368Z,97.00
2019-02-25T22:31:55.447Z,97.00
2019-02-25T22:34:25.388Z,97.00
2019-02-25T22:36:55.947Z,97.00
2019-02-25T22:39:25.770Z,97.00
2019-02-25T22:41:55.894Z,97.00
2019-02-25T22:44:26.859Z,97.00
2019-02-25T22:46:55.644Z,97.00
2019-02-25T22:49:26.160Z,97.00
2019-02-25T22:51:55.978Z,97.00
2019-02-25T22:54:26.386Z,97.00
2019-02-25T22:56:55.611Z,97.00
2019-02-25T22:59:24.714Z,97.00
2019-02-25T23:01:53.964Z,97.00
2019-02-25T23:04:24.302Z,97.00
2019-02-25T23:06:55.653Z,97.00
2019-02-25T23:09:25.810Z,97.00
2019-02-25T23:11:55.528Z,97.00
2019-02-25T23:14:24.787Z,97.00
2019-02-25T23:16:54.743Z,97.00
2019-02-25T23:19:23.858Z,97.00
2019-02-25T23:21:52.935Z,97.00
2019-02-25T23:24:26.040Z,97.00
2019-02-25T23:26:54.725Z,97.00
2019-02-25T23:29:27.846Z,97.00
2019-02-25T23:31:54.512Z,97.00
2019-02-25T23:34:23.671Z,97.00
2019-02-25T23:36:54.391Z,97.00
2019-02-25T23:39:23.704Z,97.00
2019-02-25T23:41:52.790Z,97.00
2019-02-25T23:44:24.509Z,97.00
2019-02-25T23:46:57.933Z,97.00
2019-02-25T23:49:27.340Z,97.00
2019-02-25T23:51:54.493Z,97.00
2019-02-25T23:54:25.386Z,97.00
2019-02-25T23:56:55.165Z,97.00
2019-02-25T23:59:26.559Z,97.00
